sensor_id;sensor_type;location;lat;lon;timestamp;pressure;altitude;pressure_sealevel;temperature;humidity
3598;BME280;1813;52.016;8.714;2022-10-17T00:00:22;-16261.94;;;-139.71;81.86
3598;BME280;1813;52.016;8.714;2022-10-17T00:02:56;-16261.94;;;-139.71;81.35
3598;BME280;1813;52.016;8.714;2022-10-17T00:05:28;-16261.94;;;-139.71;81.22
3598;BME280;1813;52.016;8.714;2022-10-17T00:08:00;-16261.94;;;-139.71;81.36
3598;BME280;1813;52.016;8.714;2022-10-17T00:10:32;-16261.94;;;-139.71;81.69
3598;BME280;1813;52.016;8.714;2022-10-17T00:13:06;-16261.94;;;-139.71;81.82
3598;BME280;1813;52.016;8.714;2022-10-17T00:15:42;-16261.94;;;-139.71;81.72
3598;BME280;1813;52.016;8.714;2022-10-17T00:18:13;-16261.94;;;-139.71;81.76
3598;BME280;1813;52.016;8.714;2022-10-17T00:20:45;-16261.94;;;-139.71;81.94
3598;BME280;1813;52.016;8.714;2022-10-17T00:23:18;-16261.94;;;-139.71;82.04
3598;BME280;1813;52.016;8.714;2022-10-17T00:25:57;-16261.94;;;-139.71;82.17
3598;BME280;1813;52.016;8.714;2022-10-17T00:28:31;-16261.94;;;-139.71;82.18
3598;BME280;1813;52.016;8.714;2022-10-17T00:31:05;-16261.94;;;-139.71;82.54
3598;BME280;1813;52.016;8.714;2022-10-17T00:33:37;-16261.94;;;-139.71;82.88
3598;BME280;1813;52.016;8.714;2022-10-17T00:36:12;-16261.94;;;-139.71;83.16
3598;BME280;1813;52.016;8.714;2022-10-17T00:38:47;-16261.94;;;-139.71;83.27
3598;BME280;1813;52.016;8.714;2022-10-17T00:41:22;-16261.94;;;-139.71;83.66
3598;BME280;1813;52.016;8.714;2022-10-17T00:43:58;-16261.94;;;-139.71;83.69
3598;BME280;1813;52.016;8.714;2022-10-17T00:46:32;-16261.94;;;-139.71;83.66
3598;BME280;1813;52.016;8.714;2022-10-17T00:49:07;-16261.94;;;-139.71;83.49
3598;BME280;1813;52.016;8.714;2022-10-17T00:51:41;-16261.94;;;-139.71;83.29
3598;BME280;1813;52.016;8.714;2022-10-17T00:54:16;-16261.94;;;-139.71;83.44
3598;BME280;1813;52.016;8.714;2022-10-17T00:56:50;-16261.94;;;-139.71;83.51
3598;BME280;1813;52.016;8.714;2022-10-17T00:59:25;-16261.94;;;-139.71;83.64
3598;BME280;1813;52.016;8.714;2022-10-17T01:02:01;-16261.94;;;-139.71;83.68
3598;BME280;1813;52.016;8.714;2022-10-17T01:04:34;-16261.94;;;-139.71;83.69
3598;BME280;1813;52.016;8.714;2022-10-17T01:07:07;-16261.94;;;-139.71;83.70
3598;BME280;1813;52.016;8.714;2022-10-17T01:09:39;-16261.94;;;-139.71;83.66
3598;BME280;1813;52.016;8.714;2022-10-17T01:12:17;-16261.94;;;-139.71;83.47
3598;BME280;1813;52.016;8.714;2022-10-17T01:15:02;-16261.94;;;-139.71;83.51
3598;BME280;1813;52.016;8.714;2022-10-17T01:17:45;-16261.94;;;-139.71;83.47
3598;BME280;1813;52.016;8.714;2022-10-17T01:20:40;-16261.94;;;-139.71;82.85
3598;BME280;1813;52.016;8.714;2022-10-17T01:23:28;-16261.94;;;-139.71;82.75
3598;BME280;1813;52.016;8.714;2022-10-17T01:26:13;-16261.94;;;-139.71;82.56
3598;BME280;1813;52.016;8.714;2022-10-17T01:29:08;-16261.94;;;-139.71;83.09
3598;BME280;1813;52.016;8.714;2022-10-17T01:31:46;-16261.94;;;-139.71;83.93
3598;BME280;1813;52.016;8.714;2022-10-17T01:34:28;-16261.94;;;-139.71;85.16
3598;BME280;1813;52.016;8.714;2022-10-17T01:37:05;-16261.94;;;-139.71;85.84
3598;BME280;1813;52.016;8.714;2022-10-17T01:39:43;-16261.94;;;-139.71;86.45
3598;BME280;1813;52.016;8.714;2022-10-17T01:42:22;-16261.94;;;-139.71;86.60
3598;BME280;1813;52.016;8.714;2022-10-17T01:45:02;-16261.94;;;-139.71;86.64
3598;BME280;1813;52.016;8.714;2022-10-17T01:47:37;-16261.94;;;-139.71;86.51
3598;BME280;1813;52.016;8.714;2022-10-17T01:50:14;-16261.94;;;-139.71;86.31
3598;BME280;1813;52.016;8.714;2022-10-17T01:52:49;-16261.94;;;-139.71;86.20
3598;BME280;1813;52.016;8.714;2022-10-17T01:55:25;-16261.94;;;-139.71;86.19
3598;BME280;1813;52.016;8.714;2022-10-17T01:58:02;-16261.94;;;-139.71;86.31
3598;BME280;1813;52.016;8.714;2022-10-17T02:00:37;-16261.94;;;-139.71;86.27
3598;BME280;1813;52.016;8.714;2022-10-17T02:03:16;-16261.94;;;-139.71;86.02
3598;BME280;1813;52.016;8.714;2022-10-17T02:05:49;-16261.94;;;-139.71;86.09
3598;BME280;1813;52.016;8.714;2022-10-17T02:08:26;-16261.94;;;-139.71;85.86
3598;BME280;1813;52.016;8.714;2022-10-17T02:11:03;-16261.94;;;-139.71;85.87
3598;BME280;1813;52.016;8.714;2022-10-17T02:13:50;-16261.94;;;-139.71;85.72
3598;BME280;1813;52.016;8.714;2022-10-17T02:16:34;-16261.94;;;-139.71;85.64
3598;BME280;1813;52.016;8.714;2022-10-17T02:19:22;-16261.94;;;-139.71;85.41
3598;BME280;1813;52.016;8.714;2022-10-17T02:22:06;-16261.94;;;-139.71;84.43
3598;BME280;1813;52.016;8.714;2022-10-17T02:24:47;-16261.94;;;-139.71;83.90
3598;BME280;1813;52.016;8.714;2022-10-17T02:27:27;-16261.94;;;-139.71;83.37
3598;BME280;1813;52.016;8.714;2022-10-17T02:30:09;-16261.94;;;-139.71;82.72
3598;BME280;1813;52.016;8.714;2022-10-17T02:32:45;-16261.94;;;-139.71;82.29
3598;BME280;1813;52.016;8.714;2022-10-17T02:35:24;-16261.94;;;-139.71;82.43
3598;BME280;1813;52.016;8.714;2022-10-17T02:37:59;-16261.94;;;-139.71;82.44
3598;BME280;1813;52.016;8.714;2022-10-17T02:40:33;-16261.94;;;-139.71;82.92
3598;BME280;1813;52.016;8.714;2022-10-17T02:43:07;-16261.94;;;-139.71;83.06
3598;BME280;1813;52.016;8.714;2022-10-17T02:45:39;-16261.94;;;-139.71;83.16
3598;BME280;1813;52.016;8.714;2022-10-17T02:48:15;-16261.94;;;-139.71;83.28
3598;BME280;1813;52.016;8.714;2022-10-17T02:50:57;-16261.94;;;-139.71;83.37
3598;BME280;1813;52.016;8.714;2022-10-17T02:53:38;-16261.94;;;-139.71;83.88
3598;BME280;1813;52.016;8.714;2022-10-17T02:56:18;-16261.94;;;-139.71;84.52
3598;BME280;1813;52.016;8.714;2022-10-17T02:58:54;-16261.94;;;-139.71;84.94
3598;BME280;1813;52.016;8.714;2022-10-17T03:01:29;-16261.94;;;-139.71;85.44
3598;BME280;1813;52.016;8.714;2022-10-17T03:04:06;-16261.94;;;-139.71;85.88
3598;BME280;1813;52.016;8.714;2022-10-17T03:06:40;-16261.94;;;-139.71;86.09
3598;BME280;1813;52.016;8.714;2022-10-17T03:09:13;-16261.94;;;-139.71;85.81
3598;BME280;1813;52.016;8.714;2022-10-17T03:11:45;-16261.94;;;-139.71;86.02
3598;BME280;1813;52.016;8.714;2022-10-17T03:14:17;-16261.94;;;-139.71;86.14
3598;BME280;1813;52.016;8.714;2022-10-17T03:16:50;-16261.94;;;-139.71;86.24
3598;BME280;1813;52.016;8.714;2022-10-17T03:19:22;-16261.94;;;-139.71;86.46
3598;BME280;1813;52.016;8.714;2022-10-17T03:21:57;-16261.94;;;-139.71;86.11
3598;BME280;1813;52.016;8.714;2022-10-17T03:24:29;-16261.94;;;-139.71;85.52
3598;BME280;1813;52.016;8.714;2022-10-17T03:27:02;-16261.94;;;-139.71;85.00
3598;BME280;1813;52.016;8.714;2022-10-17T03:29:34;-16261.94;;;-139.71;84.63
3598;BME280;1813;52.016;8.714;2022-10-17T03:32:08;-16261.94;;;-139.71;84.39
3598;BME280;1813;52.016;8.714;2022-10-17T03:34:40;-16261.94;;;-139.71;84.99
3598;BME280;1813;52.016;8.714;2022-10-17T03:37:15;-16261.94;;;-139.71;85.33
3598;BME280;1813;52.016;8.714;2022-10-17T03:39:48;-16261.94;;;-139.71;85.62
3598;BME280;1813;52.016;8.714;2022-10-17T03:42:20;-16261.94;;;-139.71;85.89
3598;BME280;1813;52.016;8.714;2022-10-17T03:44:52;-16261.94;;;-139.71;85.99
3598;BME280;1813;52.016;8.714;2022-10-17T03:47:24;-16261.94;;;-139.71;85.97
3598;BME280;1813;52.016;8.714;2022-10-17T03:49:56;-16261.94;;;-139.71;85.99
3598;BME280;1813;52.016;8.714;2022-10-17T03:52:29;-16261.94;;;-139.71;85.83
3598;BME280;1813;52.016;8.714;2022-10-17T03:55:02;-16261.94;;;-139.71;85.77
3598;BME280;1813;52.016;8.714;2022-10-17T03:57:34;-16261.94;;;-139.71;85.86
3598;BME280;1813;52.016;8.714;2022-10-17T04:00:09;-16261.94;;;-139.71;85.76
3598;BME280;1813;52.016;8.714;2022-10-17T04:02:56;-16261.94;;;-139.71;85.71
3598;BME280;1813;52.016;8.714;2022-10-17T04:05:30;-16261.94;;;-139.71;86.12
3598;BME280;1813;52.016;8.714;2022-10-17T04:08:04;-16261.94;;;-139.71;84.86
3598;BME280;1813;52.016;8.714;2022-10-17T04:11:05;-16261.94;;;-139.71;85.12
3598;BME280;1813;52.016;8.714;2022-10-17T04:13:37;-16261.94;;;-139.71;85.91
3598;BME280;1813;52.016;8.714;2022-10-17T04:16:12;-16261.94;;;-139.71;86.49
3598;BME280;1813;52.016;8.714;2022-10-17T04:18:53;-16261.94;;;-139.71;86.09
3598;BME280;1813;52.016;8.714;2022-10-17T04:21:28;-16261.94;;;-139.71;85.96
3598;BME280;1813;52.016;8.714;2022-10-17T04:24:09;-16261.94;;;-139.71;86.12
3598;BME280;1813;52.016;8.714;2022-10-17T04:26:49;-16261.94;;;-139.71;86.46
3598;BME280;1813;52.016;8.714;2022-10-17T04:29:23;-16261.94;;;-139.71;86.71
3598;BME280;1813;52.016;8.714;2022-10-17T04:31:58;-16261.94;;;-139.71;86.99
3598;BME280;1813;52.016;8.714;2022-10-17T04:34:43;-16261.94;;;-139.71;87.09
3598;BME280;1813;52.016;8.714;2022-10-17T04:37:15;-16261.94;;;-139.71;87.07
3598;BME280;1813;52.016;8.714;2022-10-17T04:39:50;-16261.94;;;-139.71;86.97
3598;BME280;1813;52.016;8.714;2022-10-17T04:42:22;-16261.94;;;-139.71;86.94
3598;BME280;1813;52.016;8.714;2022-10-17T04:44:56;-16261.94;;;-139.71;87.27
3598;BME280;1813;52.016;8.714;2022-10-17T04:47:30;-16261.94;;;-139.71;87.12
3598;BME280;1813;52.016;8.714;2022-10-17T04:50:03;-16261.94;;;-139.71;87.09
3598;BME280;1813;52.016;8.714;2022-10-17T04:52:37;-16261.94;;;-139.71;87.30
3598;BME280;1813;52.016;8.714;2022-10-17T04:55:17;-16261.94;;;-139.71;87.11
3598;BME280;1813;52.016;8.714;2022-10-17T04:57:49;-16261.94;;;-139.71;87.26
3598;BME280;1813;52.016;8.714;2022-10-17T05:00:24;-16261.94;;;-139.71;87.40
3598;BME280;1813;52.016;8.714;2022-10-17T05:03:04;-16261.94;;;-139.71;87.49
3598;BME280;1813;52.016;8.714;2022-10-17T05:05:37;-16261.94;;;-139.71;87.85
3598;BME280;1813;52.016;8.714;2022-10-17T05:08:10;-16261.94;;;-139.71;88.08
3598;BME280;1813;52.016;8.714;2022-10-17T05:10:44;-16261.94;;;-139.71;88.22
3598;BME280;1813;52.016;8.714;2022-10-17T05:13:19;-16261.94;;;-139.71;87.98
3598;BME280;1813;52.016;8.714;2022-10-17T05:15:51;-16261.94;;;-139.71;87.60
3598;BME280;1813;52.016;8.714;2022-10-17T05:18:23;-16261.94;;;-139.71;87.44
3598;BME280;1813;52.016;8.714;2022-10-17T05:20:56;-16261.94;;;-139.71;87.30
3598;BME280;1813;52.016;8.714;2022-10-17T05:23:28;-16261.94;;;-139.71;87.36
3598;BME280;1813;52.016;8.714;2022-10-17T05:26:02;-16261.94;;;-139.71;87.56
3598;BME280;1813;52.016;8.714;2022-10-17T05:28:34;-16261.94;;;-139.71;87.68
3598;BME280;1813;52.016;8.714;2022-10-17T05:31:08;-16261.94;;;-139.71;87.47
3598;BME280;1813;52.016;8.714;2022-10-17T05:33:40;-16261.94;;;-139.71;87.70
3598;BME280;1813;52.016;8.714;2022-10-17T05:36:24;-16261.94;;;-139.71;87.98
3598;BME280;1813;52.016;8.714;2022-10-17T05:38:57;-16261.94;;;-139.71;87.96
3598;BME280;1813;52.016;8.714;2022-10-17T05:41:32;-16261.94;;;-139.71;87.95
3598;BME280;1813;52.016;8.714;2022-10-17T05:44:04;-16261.94;;;-139.71;87.83
3598;BME280;1813;52.016;8.714;2022-10-17T05:46:47;-16261.94;;;-139.71;87.74
3598;BME280;1813;52.016;8.714;2022-10-17T05:49:19;-16261.94;;;-139.71;87.90
3598;BME280;1813;52.016;8.714;2022-10-17T05:51:51;-16261.94;;;-139.71;88.06
3598;BME280;1813;52.016;8.714;2022-10-17T05:54:24;-16261.94;;;-139.71;88.03
3598;BME280;1813;52.016;8.714;2022-10-17T05:56:57;-16261.94;;;-139.71;88.48
3598;BME280;1813;52.016;8.714;2022-10-17T05:59:33;-16261.94;;;-139.71;88.67
3598;BME280;1813;52.016;8.714;2022-10-17T06:02:15;-16261.94;;;-139.71;88.57
3598;BME280;1813;52.016;8.714;2022-10-17T06:04:48;-16261.94;;;-139.71;88.30
3598;BME280;1813;52.016;8.714;2022-10-17T06:07:22;-16261.94;;;-139.71;87.77
3598;BME280;1813;52.016;8.714;2022-10-17T06:09:54;-16261.94;;;-139.71;87.79
3598;BME280;1813;52.016;8.714;2022-10-17T06:12:30;-16261.94;;;-139.71;87.84
3598;BME280;1813;52.016;8.714;2022-10-17T06:15:03;-16261.94;;;-139.71;88.04
3598;BME280;1813;52.016;8.714;2022-10-17T06:17:35;-16261.94;;;-139.71;88.02
3598;BME280;1813;52.016;8.714;2022-10-17T06:20:08;-16261.94;;;-139.71;88.35
3598;BME280;1813;52.016;8.714;2022-10-17T06:22:40;-16261.94;;;-139.71;88.95
3598;BME280;1813;52.016;8.714;2022-10-17T06:25:18;-16261.94;;;-139.71;89.17
3598;BME280;1813;52.016;8.714;2022-10-17T06:27:51;-16261.94;;;-139.71;89.38
3598;BME280;1813;52.016;8.714;2022-10-17T06:30:25;-16261.94;;;-139.71;89.70
3598;BME280;1813;52.016;8.714;2022-10-17T06:32:57;-16261.94;;;-139.71;89.78
3598;BME280;1813;52.016;8.714;2022-10-17T06:35:29;-16261.94;;;-139.71;89.90
3598;BME280;1813;52.016;8.714;2022-10-17T06:38:02;-16261.94;;;-139.71;90.09
3598;BME280;1813;52.016;8.714;2022-10-17T06:40:35;-16261.94;;;-139.71;90.08
3598;BME280;1813;52.016;8.714;2022-10-17T06:43:09;-16261.94;;;-139.71;90.14
3598;BME280;1813;52.016;8.714;2022-10-17T06:46:00;-16261.94;;;-139.71;90.36
3598;BME280;1813;52.016;8.714;2022-10-17T06:48:40;-16261.94;;;-139.71;90.44
3598;BME280;1813;52.016;8.714;2022-10-17T06:51:18;-16261.94;;;-139.71;90.66
3598;BME280;1813;52.016;8.714;2022-10-17T06:53:57;-16261.94;;;-139.71;90.28
3598;BME280;1813;52.016;8.714;2022-10-17T06:56:49;-16261.94;;;-139.71;89.71
3598;BME280;1813;52.016;8.714;2022-10-17T06:59:41;-16261.94;;;-139.71;89.96
3598;BME280;1813;52.016;8.714;2022-10-17T07:02:16;-16261.94;;;-139.71;90.17
3598;BME280;1813;52.016;8.714;2022-10-17T07:04:49;-16261.94;;;-139.71;90.56
3598;BME280;1813;52.016;8.714;2022-10-17T07:07:21;-16261.94;;;-139.71;91.06
3598;BME280;1813;52.016;8.714;2022-10-17T07:09:52;-16261.94;;;-139.71;91.22
3598;BME280;1813;52.016;8.714;2022-10-17T07:12:24;-16261.94;;;-139.71;91.44
3598;BME280;1813;52.016;8.714;2022-10-17T07:14:58;-16261.94;;;-139.71;91.32
3598;BME280;1813;52.016;8.714;2022-10-17T07:17:30;-16261.94;;;-139.71;91.28
3598;BME280;1813;52.016;8.714;2022-10-17T07:20:02;-16261.94;;;-139.71;91.10
3598;BME280;1813;52.016;8.714;2022-10-17T07:22:38;-16261.94;;;-139.71;91.14
3598;BME280;1813;52.016;8.714;2022-10-17T07:25:10;-16261.94;;;-139.71;90.89
3598;BME280;1813;52.016;8.714;2022-10-17T07:27:49;-16261.94;;;-139.71;90.87
3598;BME280;1813;52.016;8.714;2022-10-17T07:30:34;-16261.94;;;-139.71;90.75
3598;BME280;1813;52.016;8.714;2022-10-17T07:33:13;-16261.94;;;-139.71;90.73
3598;BME280;1813;52.016;8.714;2022-10-17T07:35:45;-16261.94;;;-139.71;90.45
3598;BME280;1813;52.016;8.714;2022-10-17T07:38:17;-16261.94;;;-139.71;90.24
3598;BME280;1813;52.016;8.714;2022-10-17T07:40:53;-16261.94;;;-139.71;90.14
3598;BME280;1813;52.016;8.714;2022-10-17T07:43:26;-16261.94;;;-139.71;90.31
3598;BME280;1813;52.016;8.714;2022-10-17T07:46:01;-16261.94;;;-139.71;90.59
3598;BME280;1813;52.016;8.714;2022-10-17T07:48:34;-16261.94;;;-139.71;90.55
3598;BME280;1813;52.016;8.714;2022-10-17T07:51:08;-16261.94;;;-139.71;90.74
3598;BME280;1813;52.016;8.714;2022-10-17T07:53:40;-16261.94;;;-139.71;90.62
3598;BME280;1813;52.016;8.714;2022-10-17T07:56:13;-16261.94;;;-139.71;90.31
3598;BME280;1813;52.016;8.714;2022-10-17T07:58:45;-16261.94;;;-139.71;89.99
3598;BME280;1813;52.016;8.714;2022-10-17T08:01:21;-16261.94;;;-139.71;89.98
3598;BME280;1813;52.016;8.714;2022-10-17T08:03:55;-16261.94;;;-139.71;89.58
3598;BME280;1813;52.016;8.714;2022-10-17T08:06:27;-16261.94;;;-139.71;89.39
3598;BME280;1813;52.016;8.714;2022-10-17T08:08:59;-16261.94;;;-139.71;89.10
3598;BME280;1813;52.016;8.714;2022-10-17T08:11:31;-16261.94;;;-139.71;88.78
3598;BME280;1813;52.016;8.714;2022-10-17T08:14:05;-16261.94;;;-139.71;88.46
3598;BME280;1813;52.016;8.714;2022-10-17T08:16:39;-16261.94;;;-139.71;87.79
3598;BME280;1813;52.016;8.714;2022-10-17T08:19:11;-16261.94;;;-139.71;87.83
3598;BME280;1813;52.016;8.714;2022-10-17T08:21:43;-16261.94;;;-139.71;87.43
3598;BME280;1813;52.016;8.714;2022-10-17T08:24:16;-16261.94;;;-139.71;87.36
3598;BME280;1813;52.016;8.714;2022-10-17T08:26:48;-16261.94;;;-139.71;87.40
3598;BME280;1813;52.016;8.714;2022-10-17T08:29:20;-16261.94;;;-139.71;87.44
3598;BME280;1813;52.016;8.714;2022-10-17T08:31:53;-16261.94;;;-139.71;87.55
3598;BME280;1813;52.016;8.714;2022-10-17T08:34:25;-16261.94;;;-139.71;87.25
3598;BME280;1813;52.016;8.714;2022-10-17T08:36:58;-16261.94;;;-139.71;87.47
3598;BME280;1813;52.016;8.714;2022-10-17T08:39:30;-16261.94;;;-139.71;87.08
3598;BME280;1813;52.016;8.714;2022-10-17T08:42:19;-16261.94;;;-139.71;87.06
3598;BME280;1813;52.016;8.714;2022-10-17T08:45:00;-16261.94;;;-139.71;87.09
3598;BME280;1813;52.016;8.714;2022-10-17T08:47:38;-16261.94;;;-139.71;87.22
3598;BME280;1813;52.016;8.714;2022-10-17T08:50:14;-16261.94;;;-139.71;87.67
3598;BME280;1813;52.016;8.714;2022-10-17T08:52:51;-16261.94;;;-139.71;88.22
3598;BME280;1813;52.016;8.714;2022-10-17T08:55:28;-16261.94;;;-139.71;88.05
3598;BME280;1813;52.016;8.714;2022-10-17T08:58:16;-16261.94;;;-139.71;87.04
3598;BME280;1813;52.016;8.714;2022-10-17T09:00:56;-16261.94;;;-139.71;85.51
3598;BME280;1813;52.016;8.714;2022-10-17T09:03:56;-16261.94;;;-139.71;83.24
3598;BME280;1813;52.016;8.714;2022-10-17T09:06:33;-16261.94;;;-139.71;83.02
3598;BME280;1813;52.016;8.714;2022-10-17T09:09:22;-16261.94;;;-139.71;80.49
3598;BME280;1813;52.016;8.714;2022-10-17T09:12:13;-16261.94;;;-139.71;80.17
3598;BME280;1813;52.016;8.714;2022-10-17T09:14:59;-16261.94;;;-139.71;79.83
3598;BME280;1813;52.016;8.714;2022-10-17T09:17:43;-16261.94;;;-139.71;80.07
3598;BME280;1813;52.016;8.714;2022-10-17T09:20:18;-16261.94;;;-139.71;80.18
3598;BME280;1813;52.016;8.714;2022-10-17T09:22:55;-16261.94;;;-139.71;80.88
3598;BME280;1813;52.016;8.714;2022-10-17T09:25:32;-16261.94;;;-139.71;81.14
3598;BME280;1813;52.016;8.714;2022-10-17T09:28:11;-16261.94;;;-139.71;81.34
3598;BME280;1813;52.016;8.714;2022-10-17T09:30:46;-16261.94;;;-139.71;81.44
3598;BME280;1813;52.016;8.714;2022-10-17T09:33:23;-16261.94;;;-139.71;81.34
3598;BME280;1813;52.016;8.714;2022-10-17T09:36:01;-16261.94;;;-139.71;80.98
3598;BME280;1813;52.016;8.714;2022-10-17T09:38:38;-16261.94;;;-139.71;79.63
3598;BME280;1813;52.016;8.714;2022-10-17T09:41:16;-16261.94;;;-139.71;78.76
3598;BME280;1813;52.016;8.714;2022-10-17T09:43:51;-16261.94;;;-139.71;76.74
3598;BME280;1813;52.016;8.714;2022-10-17T09:46:30;-16261.94;;;-139.71;75.11
3598;BME280;1813;52.016;8.714;2022-10-17T09:49:10;-16261.94;;;-139.71;74.35
3598;BME280;1813;52.016;8.714;2022-10-17T09:51:44;-16261.94;;;-139.71;71.98
3598;BME280;1813;52.016;8.714;2022-10-17T09:54:20;-16261.94;;;-139.71;69.57
3598;BME280;1813;52.016;8.714;2022-10-17T09:56:57;-16261.94;;;-139.71;70.29
3598;BME280;1813;52.016;8.714;2022-10-17T09:59:32;-16261.94;;;-139.71;70.25
3598;BME280;1813;52.016;8.714;2022-10-17T10:02:16;-16261.94;;;-139.71;68.24
3598;BME280;1813;52.016;8.714;2022-10-17T10:04:57;-16261.94;;;-139.71;65.18
3598;BME280;1813;52.016;8.714;2022-10-17T10:07:32;-16261.94;;;-139.71;63.96
3598;BME280;1813;52.016;8.714;2022-10-17T10:10:07;-16261.94;;;-139.71;62.06
3598;BME280;1813;52.016;8.714;2022-10-17T10:13:17;-16261.94;;;-139.71;62.18
3598;BME280;1813;52.016;8.714;2022-10-17T10:15:50;-16261.94;;;-139.71;61.13
3598;BME280;1813;52.016;8.714;2022-10-17T10:18:29;-16261.94;;;-139.71;61.11
3598;BME280;1813;52.016;8.714;2022-10-17T10:21:04;-16261.94;;;-139.71;61.06
3598;BME280;1813;52.016;8.714;2022-10-17T10:23:39;-16261.94;;;-139.71;61.36
3598;BME280;1813;52.016;8.714;2022-10-17T10:26:21;-16261.94;;;-139.71;61.55
3598;BME280;1813;52.016;8.714;2022-10-17T10:28:56;-16261.94;;;-139.71;61.39
3598;BME280;1813;52.016;8.714;2022-10-17T10:31:34;-16261.94;;;-139.71;60.48
3598;BME280;1813;52.016;8.714;2022-10-17T10:34:15;-16261.94;;;-139.71;61.03
3598;BME280;1813;52.016;8.714;2022-10-17T10:36:58;-16261.94;;;-139.71;60.85
3598;BME280;1813;52.016;8.714;2022-10-17T10:39:37;-16261.94;;;-139.71;60.33
3598;BME280;1813;52.016;8.714;2022-10-17T10:42:24;-16261.94;;;-139.71;60.50
3598;BME280;1813;52.016;8.714;2022-10-17T10:45:00;-16261.94;;;-139.71;59.79
3598;BME280;1813;52.016;8.714;2022-10-17T10:47:33;-16261.94;;;-139.71;59.75
3598;BME280;1813;52.016;8.714;2022-10-17T10:50:17;-16261.94;;;-139.71;59.65
3598;BME280;1813;52.016;8.714;2022-10-17T10:52:58;-16261.94;;;-139.71;58.97
3598;BME280;1813;52.016;8.714;2022-10-17T10:55:40;-16261.94;;;-139.71;58.09
3598;BME280;1813;52.016;8.714;2022-10-17T10:58:23;-16261.94;;;-139.71;57.32
3598;BME280;1813;52.016;8.714;2022-10-17T11:01:01;-16261.94;;;-139.71;56.76
3598;BME280;1813;52.016;8.714;2022-10-17T11:03:40;-16261.94;;;-139.71;57.12
3598;BME280;1813;52.016;8.714;2022-10-17T11:06:18;-16261.94;;;-139.71;58.79
3598;BME280;1813;52.016;8.714;2022-10-17T11:09:02;-16261.94;;;-139.71;59.44
3598;BME280;1813;52.016;8.714;2022-10-17T11:11:40;-16261.94;;;-139.71;59.14
3598;BME280;1813;52.016;8.714;2022-10-17T11:14:18;-16261.94;;;-139.71;57.58
3598;BME280;1813;52.016;8.714;2022-10-17T11:16:57;-16261.94;;;-139.71;57.00
3598;BME280;1813;52.016;8.714;2022-10-17T11:19:35;-16261.94;;;-139.71;57.42
3598;BME280;1813;52.016;8.714;2022-10-17T11:22:12;-16261.94;;;-139.71;55.53
3598;BME280;1813;52.016;8.714;2022-10-17T11:24:51;-16261.94;;;-139.71;54.22
3598;BME280;1813;52.016;8.714;2022-10-17T11:27:29;-16261.94;;;-139.71;54.54
3598;BME280;1813;52.016;8.714;2022-10-17T11:30:01;-16261.94;;;-139.71;55.00
3598;BME280;1813;52.016;8.714;2022-10-17T11:32:41;-16261.94;;;-139.71;54.82
3598;BME280;1813;52.016;8.714;2022-10-17T11:35:18;-16261.94;;;-139.71;55.88
3598;BME280;1813;52.016;8.714;2022-10-17T11:37:55;-16261.94;;;-139.71;57.14
3598;BME280;1813;52.016;8.714;2022-10-17T11:40:32;-16261.94;;;-139.71;58.49
3598;BME280;1813;52.016;8.714;2022-10-17T11:43:13;-16261.94;;;-139.71;58.96
3598;BME280;1813;52.016;8.714;2022-10-17T11:45:52;-16261.94;;;-139.71;60.01
3598;BME280;1813;52.016;8.714;2022-10-17T11:48:27;-16261.94;;;-139.71;60.58
3598;BME280;1813;52.016;8.714;2022-10-17T11:51:05;-16261.94;;;-139.71;61.73
3598;BME280;1813;52.016;8.714;2022-10-17T11:53:46;-16261.94;;;-139.71;62.40
3598;BME280;1813;52.016;8.714;2022-10-17T11:56:34;-16261.94;;;-139.71;62.83
3598;BME280;1813;52.016;8.714;2022-10-17T11:59:39;-16261.94;;;-139.71;62.93
3598;BME280;1813;52.016;8.714;2022-10-17T12:02:26;-16261.94;;;-139.71;63.34
3598;BME280;1813;52.016;8.714;2022-10-17T12:05:02;-16261.94;;;-139.71;64.06
3598;BME280;1813;52.016;8.714;2022-10-17T12:07:45;-16261.94;;;-139.71;65.39
3598;BME280;1813;52.016;8.714;2022-10-17T12:10:30;-16261.94;;;-139.71;65.33
3598;BME280;1813;52.016;8.714;2022-10-17T12:16:47;-16261.94;;;-139.71;65.42
3598;BME280;1813;52.016;8.714;2022-10-17T12:19:31;-16261.94;;;-139.71;64.07
3598;BME280;1813;52.016;8.714;2022-10-17T12:22:19;-16261.94;;;-139.71;64.40
3598;BME280;1813;52.016;8.714;2022-10-17T12:24:57;-16261.94;;;-139.71;64.65
3598;BME280;1813;52.016;8.714;2022-10-17T12:27:40;-16261.94;;;-139.71;64.77
3598;BME280;1813;52.016;8.714;2022-10-17T12:30:19;-16261.94;;;-139.71;64.49
3598;BME280;1813;52.016;8.714;2022-10-17T12:33:04;-16261.94;;;-139.71;64.46
3598;BME280;1813;52.016;8.714;2022-10-17T12:35:39;-16261.94;;;-139.71;65.56
3598;BME280;1813;52.016;8.714;2022-10-17T12:38:25;-16261.94;;;-139.71;66.66
3598;BME280;1813;52.016;8.714;2022-10-17T12:41:04;-16261.94;;;-139.71;67.06
3598;BME280;1813;52.016;8.714;2022-10-17T12:43:49;-16261.94;;;-139.71;67.82
3598;BME280;1813;52.016;8.714;2022-10-17T12:46:49;-16261.94;;;-139.71;67.28
3598;BME280;1813;52.016;8.714;2022-10-17T12:49:40;-16261.94;;;-139.71;67.82
3598;BME280;1813;52.016;8.714;2022-10-17T12:52:18;-16261.94;;;-139.71;68.78
3598;BME280;1813;52.016;8.714;2022-10-17T12:54:57;-16261.94;;;-139.71;68.34
3598;BME280;1813;52.016;8.714;2022-10-17T12:57:33;-16261.94;;;-139.71;67.31
3598;BME280;1813;52.016;8.714;2022-10-17T13:00:16;-16261.94;;;-139.71;65.89
3598;BME280;1813;52.016;8.714;2022-10-17T13:02:53;-16261.94;;;-139.71;66.39
3598;BME280;1813;52.016;8.714;2022-10-17T13:05:29;-16261.94;;;-139.71;66.94
3598;BME280;1813;52.016;8.714;2022-10-17T13:08:04;-16261.94;;;-139.71;67.68
3598;BME280;1813;52.016;8.714;2022-10-17T13:10:38;-16261.94;;;-139.71;67.50
3598;BME280;1813;52.016;8.714;2022-10-17T13:13:14;-16261.94;;;-139.71;67.56
3598;BME280;1813;52.016;8.714;2022-10-17T13:15:50;-16261.94;;;-139.71;66.74
3598;BME280;1813;52.016;8.714;2022-10-17T13:18:24;-16261.94;;;-139.71;67.48
3598;BME280;1813;52.016;8.714;2022-10-17T13:20:59;-16261.94;;;-139.71;67.48
3598;BME280;1813;52.016;8.714;2022-10-17T13:23:33;-16261.94;;;-139.71;67.21
3598;BME280;1813;52.016;8.714;2022-10-17T13:26:12;-16261.94;;;-139.71;66.90
3598;BME280;1813;52.016;8.714;2022-10-17T13:29:03;-16261.94;;;-139.71;67.38
3598;BME280;1813;52.016;8.714;2022-10-17T13:31:37;-16261.94;;;-139.71;67.23
3598;BME280;1813;52.016;8.714;2022-10-17T13:34:15;-16261.94;;;-139.71;67.45
3598;BME280;1813;52.016;8.714;2022-10-17T13:36:52;-16261.94;;;-139.71;67.84
3598;BME280;1813;52.016;8.714;2022-10-17T13:39:32;-16261.94;;;-139.71;66.95
3598;BME280;1813;52.016;8.714;2022-10-17T13:42:06;-16261.94;;;-139.71;67.06
3598;BME280;1813;52.016;8.714;2022-10-17T13:44:47;-16261.94;;;-139.71;66.86